createdAt,value
2019-04-06T00:00:14.999Z,17.40
2019-04-06T00:02:43.457Z,20.30
2019-04-06T00:05:12.152Z,20.33
2019-04-06T00:07:40.559Z,16.70
2019-04-06T00:10:09.617Z,17.57
2019-04-06T00:12:38.013Z,16.53
2019-04-06T00:15:07.661Z,17.60
2019-04-06T00:17:36.060Z,15.57
2019-04-06T00:20:08.666Z,14.87
2019-04-06T00:22:37.100Z,17.45
2019-04-06T00:25:06.656Z,23.10
2019-04-06T00:27:35.057Z,19.07
2019-04-06T00:30:04.112Z,18.53
2019-04-06T00:32:50.577Z,19.20
2019-04-06T00:35:19.016Z,24.53
2019-04-06T00:37:47.472Z,15.63
2019-04-06T00:40:16.351Z,20.60
2019-04-06T00:42:44.862Z,20.27
2019-04-06T00:45:13.440Z,18.60
2019-04-06T00:47:41.889Z,20.13
2019-04-06T00:50:10.423Z,22.90
2019-04-06T00:52:38.488Z,19.70
2019-04-06T00:55:06.932Z,20.17
2019-04-06T00:57:35.324Z,19.70
2019-04-06T01:00:05.848Z,18.92
2019-04-06T01:02:34.253Z,18.52
2019-04-06T01:05:02.382Z,19.50
2019-04-06T01:07:30.778Z,20.87
2019-04-06T01:09:59.214Z,18.37
2019-04-06T01:12:27.616Z,21.57
2019-04-06T01:14:56.024Z,21.47
2019-04-06T01:17:24.426Z,21.27
2019-04-06T01:19:52.878Z,21.42
2019-04-06T01:22:21.280Z,21.87
2019-04-06T01:24:49.696Z,21.33
2019-04-06T01:27:18.099Z,18.97
2019-04-06T01:29:46.515Z,22.17
2019-04-06T01:32:14.917Z,22.23
2019-04-06T01:34:43.000Z,24.13
2019-04-06T01:37:11.413Z,20.97
2019-04-06T01:39:39.570Z,22.23
2019-04-06T01:42:08.117Z,22.20
2019-04-06T01:44:36.574Z,31.23
2019-04-06T01:47:05.013Z,26.03
2019-04-06T01:49:33.417Z,21.50
2019-04-06T01:52:01.830Z,21.37
2019-04-06T01:54:30.232Z,19.90
2019-04-06T01:56:58.352Z,22.02
2019-04-06T01:59:26.744Z,20.70
2019-04-06T02:01:56.793Z,21.57
2019-04-06T02:04:25.275Z,21.90
2019-04-06T02:06:53.390Z,21.47
2019-04-06T02:09:21.798Z,24.37
2019-04-06T02:11:49.883Z,26.43
2019-04-06T02:14:18.354Z,22.77
2019-04-06T02:16:46.813Z,22.43
2019-04-06T02:19:15.251Z,24.63
2019-04-06T02:21:43.485Z,24.73
2019-04-06T02:24:11.562Z,23.20
2019-04-06T02:26:40.027Z,25.20
2019-04-06T02:29:08.527Z,24.57
2019-04-06T02:31:54.217Z,24.03
2019-04-06T02:38:02.496Z,21.90
2019-04-06T02:40:44.816Z,24.67
2019-04-06T02:43:34.222Z,24.90
2019-04-06T02:46:02.711Z,26.53
2019-04-06T02:48:31.112Z,25.60
2019-04-06T02:50:59.559Z,23.37
2019-04-06T02:53:27.759Z,27.50
2019-04-06T02:55:56.249Z,23.22
2019-04-06T02:58:25.280Z,25.07
2019-04-06T03:00:53.698Z,23.53
2019-04-06T03:03:22.290Z,27.70
2019-04-06T03:05:50.833Z,23.23
2019-04-06T03:08:19.358Z,26.53
2019-04-06T03:10:47.957Z,26.90
2019-04-06T03:13:16.795Z,20.80
2019-04-06T03:15:45.061Z,24.67
2019-04-06T03:18:13.509Z,26.27
2019-04-06T03:20:41.619Z,25.07
2019-04-06T03:26:11.401Z,23.53
2019-04-06T03:28:39.830Z,28.63
2019-04-06T03:31:08.401Z,24.53
2019-04-06T03:33:37.109Z,26.48
2019-04-06T03:36:05.674Z,22.13
2019-04-06T03:38:34.160Z,21.75
2019-04-06T03:41:02.750Z,25.40
2019-04-06T03:43:30.985Z,22.93
2019-04-06T03:45:59.390Z,20.50
2019-04-06T03:48:27.799Z,24.90
2019-04-06T03:50:56.397Z,23.10
2019-04-06T03:53:24.894Z,26.63
2019-04-06T03:55:53.382Z,25.13
2019-04-06T03:58:22.095Z,23.30
2019-04-06T04:00:50.578Z,24.27
2019-04-06T04:03:19.207Z,27.23
2019-04-06T04:05:47.589Z,23.93
2019-04-06T04:08:16.001Z,21.80
2019-04-06T04:10:47.076Z,24.10
2019-04-06T04:13:14.553Z,26.27
2019-04-06T04:15:42.944Z,22.33
2019-04-06T04:18:11.533Z,25.40
2019-04-06T04:20:40.026Z,23.03
2019-04-06T04:23:08.126Z,26.77
2019-04-06T04:25:36.796Z,27.15
2019-04-06T04:28:05.469Z,24.43
2019-04-06T04:30:34.538Z,28.13
2019-04-06T04:33:03.511Z,24.43
2019-04-06T04:35:31.910Z,27.73
2019-04-06T04:38:00.337Z,23.87
2019-04-06T04:40:28.807Z,28.77
2019-04-06T04:42:57.218Z,26.20
2019-04-06T04:45:25.616Z,30.47
2019-04-06T04:47:54.031Z,27.63
2019-04-06T04:50:22.463Z,27.93
2019-04-06T04:52:50.929Z,23.43
2019-04-06T04:55:19.446Z,25.40
2019-04-06T04:57:48.170Z,23.83
2019-04-06T05:00:17.345Z,23.43
2019-04-06T05:02:45.753Z,29.85
2019-04-06T05:05:14.239Z,27.70
2019-04-06T05:07:42.317Z,30.60
2019-04-06T05:10:11.143Z,30.13
2019-04-06T05:12:39.320Z,23.40
2019-04-06T05:15:13.785Z,20.80
2019-04-06T05:17:42.188Z,25.80
2019-04-06T05:20:11.041Z,26.77
2019-04-06T05:22:39.437Z,26.93
2019-04-06T05:25:13.640Z,31.40
2019-04-06T05:27:51.242Z,26.23
2019-04-06T05:30:12.329Z,25.87
2019-04-06T05:32:43.657Z,25.77
2019-04-06T05:35:12.198Z,27.23
2019-04-06T05:37:40.268Z,32.93
2019-04-06T05:40:08.848Z,27.60
2019-04-06T05:42:37.256Z,26.93
2019-04-06T05:45:09.214Z,26.75
2019-04-06T05:47:37.618Z,26.60
2019-04-06T05:50:07.480Z,23.57
2019-04-06T05:52:35.947Z,24.87
2019-04-06T05:55:05.104Z,27.85
2019-04-06T05:57:33.520Z,27.35
2019-04-06T06:00:01.955Z,27.20
2019-04-06T06:02:30.378Z,27.75
2019-04-06T06:05:00.881Z,31.52
2019-04-06T06:07:29.016Z,30.35
2019-04-06T06:09:57.544Z,34.40
2019-04-06T06:12:26.386Z,28.15
2019-04-06T06:14:55.272Z,29.42
2019-04-06T06:17:23.912Z,34.98
2019-04-06T06:19:52.368Z,32.03
2019-04-06T06:22:20.855Z,28.73
2019-04-06T06:24:49.322Z,28.80
2019-04-06T06:27:17.760Z,33.20
2019-04-06T06:29:46.172Z,28.75
2019-04-06T06:32:14.686Z,29.70
2019-04-06T06:34:43.177Z,26.02
2019-04-06T06:37:11.754Z,31.33
2019-04-06T06:39:39.832Z,29.98
2019-04-06T06:42:08.345Z,32.75
2019-04-06T06:44:37.116Z,27.25
2019-04-06T06:47:05.598Z,27.85
2019-04-06T06:49:34.076Z,30.43
2019-04-06T06:52:02.490Z,32.90
2019-04-06T06:54:30.954Z,31.62
2019-04-06T06:56:59.656Z,30.97
2019-04-06T06:59:28.069Z,35.60
2019-04-06T07:01:56.482Z,39.50
2019-04-06T07:04:24.899Z,32.25
2019-04-06T07:06:53.311Z,34.88
2019-04-06T07:09:21.713Z,37.93
2019-04-06T07:11:50.153Z,33.10
2019-04-06T07:14:18.629Z,36.53
2019-04-06T07:16:47.093Z,36.30
2019-04-06T07:19:15.168Z,41.88
2019-04-06T07:21:43.577Z,37.00
2019-04-06T07:24:11.723Z,32.78
2019-04-06T07:26:41.553Z,35.03
2019-04-06T07:29:10.272Z,35.73
2019-04-06T07:31:38.697Z,35.40
2019-04-06T07:34:07.154Z,33.23
2019-04-06T07:36:36.065Z,36.75
2019-04-06T07:39:06.401Z,38.75
2019-04-06T07:41:34.488Z,39.60
2019-04-06T07:44:03.163Z,31.47
2019-04-06T07:46:33.064Z,41.55
2019-04-06T07:49:08.430Z,40.10
2019-04-06T07:51:31.461Z,37.13
2019-04-06T07:53:59.872Z,34.40
2019-04-06T07:56:28.288Z,39.55
2019-04-06T07:58:56.704Z,34.92
2019-04-06T08:01:25.108Z,37.58
2019-04-06T08:03:53.521Z,38.95
2019-04-06T08:06:21.600Z,35.13
2019-04-06T08:08:50.030Z,37.58
2019-04-06T08:11:18.533Z,35.45
2019-04-06T08:13:47.158Z,32.83
2019-04-06T08:16:15.405Z,38.23
2019-04-06T08:18:43.812Z,36.53
2019-04-06T08:21:12.231Z,37.63
2019-04-06T08:23:40.859Z,36.85
2019-04-06T08:26:09.465Z,40.40
2019-04-06T08:28:38.177Z,33.90
2019-04-06T08:31:06.820Z,37.63
2019-04-06T08:33:35.380Z,34.65
2019-04-06T08:36:03.652Z,39.03
2019-04-06T08:38:32.096Z,36.90
2019-04-06T08:41:00.528Z,34.23
2019-04-06T08:43:29.116Z,35.08
2019-04-06T08:45:57.530Z,30.72
2019-04-06T08:48:25.952Z,32.80
2019-04-06T08:50:54.572Z,30.50
2019-04-06T08:53:23.050Z,29.50
2019-04-06T08:55:51.456Z,31.17
2019-04-06T08:58:19.539Z,31.48
2019-04-06T09:00:48.089Z,29.23
2019-04-06T09:03:16.219Z,34.10
2019-04-06T09:05:44.539Z,31.50
2019-04-06T09:08:13.266Z,34.60
2019-04-06T09:10:41.788Z,26.02
2019-04-06T09:13:10.227Z,33.90
2019-04-06T09:15:38.648Z,29.87
2019-04-06T09:18:07.096Z,30.57
2019-04-06T09:20:35.523Z,27.60
2019-04-06T09:23:04.135Z,26.48
2019-04-06T09:25:32.612Z,25.12
2019-04-06T09:28:01.079Z,28.60
2019-04-06T09:30:29.551Z,27.87
2019-04-06T09:32:58.325Z,32.33
2019-04-06T09:35:27.096Z,23.30
2019-04-06T09:37:55.528Z,28.77
2019-04-06T09:40:23.937Z,27.22
2019-04-06T09:42:52.124Z,28.20
2019-04-06T09:45:31.195Z,26.20
2019-04-06T09:48:04.455Z,25.55
2019-04-06T09:50:34.187Z,28.05
2019-04-06T09:53:04.414Z,26.42
2019-04-06T09:55:37.295Z,24.90
2019-04-06T09:58:10.274Z,25.48
2019-04-06T10:00:43.217Z,22.17
2019-04-06T10:03:24.852Z,26.25
2019-04-06T10:06:03.776Z,23.42
2019-04-06T10:08:36.684Z,22.50
2019-04-06T10:11:15.333Z,23.85
2019-04-06T10:14:02.087Z,24.27
2019-04-06T10:16:41.379Z,24.92
2019-04-06T10:19:20.506Z,22.75
2019-04-06T10:21:56.376Z,22.98
2019-04-06T10:24:29.642Z,24.57
2019-04-06T10:26:59.973Z,28.35
2019-04-06T10:29:30.012Z,26.52
2019-04-06T10:32:03.567Z,21.15
2019-04-06T10:34:36.172Z,21.55
2019-04-06T10:37:06.679Z,21.30
2019-04-06T10:39:36.824Z,24.70
2019-04-06T10:42:12.707Z,21.90
2019-04-06T10:44:58.968Z,21.90
2019-04-06T10:47:29.021Z,24.57
2019-04-06T10:50:04.936Z,20.10
2019-04-06T10:52:41.264Z,23.35
2019-04-06T10:55:20.353Z,22.25
2019-04-06T10:57:50.398Z,21.97
2019-04-06T11:00:20.459Z,21.62
2019-04-06T11:03:08.334Z,24.47
2019-04-06T11:05:40.948Z,18.73
2019-04-06T11:08:28.939Z,25.00
2019-04-06T11:11:20.384Z,24.40
2019-04-06T11:14:04.909Z,22.90
2019-04-06T11:16:43.635Z,23.20
2019-04-06T11:19:13.695Z,22.30
2019-04-06T11:21:52.632Z,21.30
2019-04-06T11:24:28.235Z,23.77
2019-04-06T11:27:07.515Z,20.02
2019-04-06T11:29:55.079Z,23.07
2019-04-06T11:32:25.002Z,19.45
2019-04-06T11:34:57.473Z,19.02
2019-04-06T11:37:33.185Z,16.05
2019-04-06T11:40:18.139Z,22.58
2019-04-06T11:43:06.609Z,20.48
2019-04-06T11:45:48.604Z,19.20
2019-04-06T11:48:18.339Z,20.60
2019-04-06T11:50:48.357Z,20.10
2019-04-06T11:53:21.558Z,21.75
2019-04-06T11:55:51.609Z,22.05
2019-04-06T11:58:30.684Z,21.07
2019-04-06T12:01:17.239Z,22.32
2019-04-06T12:03:50.223Z,19.92
2019-04-06T12:06:22.798Z,16.95
2019-04-06T12:09:09.287Z,18.52
2019-04-06T12:11:39.934Z,19.35
2019-04-06T12:14:12.923Z,19.45
2019-04-06T12:17:01.470Z,19.00
2019-04-06T12:19:34.167Z,13.95
2019-04-06T12:22:04.286Z,19.30
2019-04-06T12:24:51.840Z,17.25
2019-04-06T12:27:37.984Z,17.65
2019-04-06T12:30:20.961Z,19.25
2019-04-06T12:33:07.569Z,15.30
2019-04-06T12:35:43.345Z,17.73
2019-04-06T12:38:13.391Z,17.23
2019-04-06T12:40:59.720Z,15.75
2019-04-06T12:43:46.375Z,14.83
2019-04-06T12:46:22.599Z,14.93
2019-04-06T12:49:07.864Z,18.42
2019-04-06T12:51:46.632Z,16.93
2019-04-06T12:54:32.896Z,14.33
2019-04-06T12:57:03.018Z,15.03
2019-04-06T12:59:49.533Z,14.70
2019-04-06T13:02:31.672Z,17.23
2019-04-06T13:05:12.459Z,15.08
2019-04-06T13:07:58.565Z,15.65
2019-04-06T13:10:40.857Z,14.95
2019-04-06T13:13:13.441Z,16.30
2019-04-06T13:15:43.549Z,14.47
2019-04-06T13:18:13.888Z,14.45
2019-04-06T13:20:47.123Z,14.63
2019-04-06T13:23:33.893Z,11.25
2019-04-06T13:26:19.233Z,12.35
2019-04-06T13:28:49.276Z,11.70
2019-04-06T13:31:19.342Z,11.75
2019-04-06T13:33:55.442Z,9.63
2019-04-06T13:36:31.753Z,11.03
2019-04-06T13:39:18.232Z,9.50
2019-04-06T13:41:51.401Z,7.78
2019-04-06T13:44:37.495Z,8.35
2019-04-06T13:47:10.269Z,7.10
2019-04-06T13:49:49.137Z,6.72
2019-04-06T13:52:24.974Z,6.40
2019-04-06T13:55:09.720Z,7.45
2019-04-06T13:57:42.149Z,8.25
2019-04-06T14:00:27.072Z,7.15
2019-04-06T14:02:57.129Z,9.53
2019-04-06T14:05:32.867Z,5.40
2019-04-06T14:08:05.368Z,7.65
2019-04-06T14:10:35.407Z,7.70
2019-04-06T14:13:14.464Z,8.08
2019-04-06T14:15:50.536Z,7.53
2019-04-06T14:18:37.086Z,5.65
2019-04-06T14:21:22.264Z,7.95
2019-04-06T14:23:55.229Z,8.80
2019-04-06T14:29:47.401Z,6.03
2019-04-06T14:32:20.388Z,7.60
2019-04-06T14:34:50.432Z,6.78
2019-04-06T14:37:32.642Z,6.28
2019-04-06T14:40:05.529Z,5.28
2019-04-06T14:42:41.317Z,6.92
2019-04-06T14:45:14.000Z,7.28
2019-04-06T14:47:46.582Z,8.13
2019-04-06T14:50:33.333Z,8.13
2019-04-06T14:53:03.657Z,7.10
2019-04-06T14:55:36.376Z,5.53
2019-04-06T14:58:15.793Z,4.85
2019-04-06T15:01:05.378Z,7.08
2019-04-06T15:03:51.918Z,5.92
2019-04-06T15:06:40.479Z,6.70
2019-04-06T15:09:30.003Z,4.50
2019-04-06T15:12:16.715Z,5.10
2019-04-06T15:14:46.946Z,4.58
2019-04-06T15:17:25.625Z,5.03
2019-04-06T15:20:02.011Z,6.17
2019-04-06T15:22:32.237Z,4.58
2019-04-06T15:25:18.229Z,6.70
2019-04-06T15:27:48.261Z,5.10
2019-04-06T15:30:34.628Z,7.17
2019-04-06T15:33:16.807Z,6.58
2019-04-06T15:35:58.783Z,5.25
2019-04-06T15:38:31.784Z,5.87
2019-04-06T15:41:07.584Z,6.83
2019-04-06T15:43:37.693Z,6.08
2019-04-06T15:46:22.386Z,7.17
2019-04-06T15:49:09.045Z,6.42
2019-04-06T15:51:54.624Z,5.47
2019-04-06T15:54:41.076Z,10.08
2019-04-06T15:57:26.456Z,5.65
2019-04-06T15:59:56.504Z,6.62
2019-04-06T16:02:26.902Z,5.33
2019-04-06T16:05:00.193Z,8.10
2019-04-06T16:07:33.418Z,5.00
2019-04-06T16:10:01.709Z,4.50
2019-04-06T16:12:34.552Z,5.25
2019-04-06T16:15:07.666Z,5.72
2019-04-06T16:17:57.199Z,4.90
2019-04-06T16:20:39.610Z,4.33
2019-04-06T16:23:12.401Z,3.65
2019-04-06T16:25:48.178Z,5.03
2019-04-06T16:28:18.238Z,5.95
2019-04-06T16:30:51.878Z,4.15
2019-04-06T16:33:22.085Z,3.70
2019-04-06T16:36:03.588Z,3.30
2019-04-06T16:38:36.609Z,4.00
2019-04-06T16:41:18.698Z,4.15
2019-04-06T16:44:00.601Z,5.10
2019-04-06T16:46:39.560Z,5.05
2019-04-06T16:49:15.619Z,5.33
2019-04-06T16:51:45.655Z,4.28
2019-04-06T16:54:24.598Z,3.80
2019-04-06T16:57:11.271Z,3.42
2019-04-06T16:59:53.312Z,19.95
2019-04-06T17:02:29.841Z,5.17
2019-04-06T17:05:05.837Z,3.77
2019-04-06T17:07:52.561Z,4.65
2019-04-06T17:10:25.585Z,3.50
2019-04-06T17:12:58.339Z,4.30
2019-04-06T17:15:37.121Z,2.67
2019-04-06T17:18:23.059Z,7.25
2019-04-06T17:20:56.032Z,3.92
2019-04-06T17:23:29.601Z,2.60
2019-04-06T17:26:08.559Z,4.05
2019-04-06T17:28:54.928Z,4.10
2019-04-06T17:31:25.379Z,5.80
2019-04-06T17:33:55.562Z,4.33
2019-04-06T17:36:25.452Z,3.25
2019-04-06T17:39:00.951Z,3.95
2019-04-06T17:41:34.095Z,3.12
2019-04-06T17:44:04.688Z,3.72
2019-04-06T17:46:34.843Z,3.75
2019-04-06T17:49:10.343Z,4.70
2019-04-06T17:51:55.436Z,9.35
2019-04-06T17:54:43.390Z,4.60
2019-04-06T17:57:19.598Z,5.17
2019-04-06T17:59:49.673Z,4.65
2019-04-06T18:02:47.417Z,3.85
2019-04-06T18:05:17.166Z,3.70
2019-04-06T18:07:59.346Z,4.40
2019-04-06T18:10:29.438Z,6.05
2019-04-06T18:13:01.961Z,4.35
2019-04-06T18:15:30.967Z,4.40
2019-04-06T18:18:00.107Z,3.52
2019-04-06T18:20:28.790Z,3.62
2019-04-06T18:22:57.402Z,3.92
2019-04-06T18:25:25.805Z,4.33
2019-04-06T18:27:54.226Z,5.30
2019-04-06T18:30:22.782Z,6.33
2019-04-06T18:33:01.290Z,4.90
2019-04-06T18:35:23.336Z,5.35
2019-04-06T18:37:53.441Z,3.10
2019-04-06T18:40:23.681Z,3.30
2019-04-06T18:42:52.130Z,4.67
2019-04-06T18:45:20.880Z,3.55
2019-04-06T18:47:49.520Z,3.70
2019-04-06T18:50:17.757Z,6.42
2019-04-06T18:52:46.466Z,3.27
2019-04-06T18:55:15.020Z,5.33
2019-04-06T18:57:43.542Z,5.62
2019-04-06T19:00:13.362Z,4.65
2019-04-06T19:02:42.471Z,2.98
2019-04-06T19:05:11.612Z,4.87
2019-04-06T19:07:40.057Z,3.85
2019-04-06T19:10:09.496Z,5.03
2019-04-06T19:12:37.995Z,4.40
2019-04-06T19:15:06.966Z,4.47
2019-04-06T19:17:35.553Z,6.35
2019-04-06T19:20:05.008Z,4.00
2019-04-06T19:22:33.407Z,3.67
2019-04-06T19:25:01.843Z,3.55
2019-04-06T19:27:30.385Z,3.72
2019-04-06T19:29:58.462Z,4.08
2019-04-06T19:32:26.633Z,4.12
2019-04-06T19:34:54.734Z,3.22
2019-04-06T19:37:23.153Z,4.83
2019-04-06T19:39:51.353Z,5.37
2019-04-06T19:42:20.437Z,4.15
2019-04-06T19:44:49.029Z,3.60
2019-04-06T19:47:17.433Z,5.72
2019-04-06T19:49:45.849Z,3.75
2019-04-06T19:52:14.246Z,3.75
2019-04-06T19:54:42.667Z,3.65
2019-04-06T19:57:10.866Z,3.20
2019-04-06T19:59:39.520Z,3.75
2019-04-06T20:02:26.914Z,3.92
2019-04-06T20:04:55.333Z,4.55
2019-04-06T20:07:23.990Z,3.50
2019-04-06T20:09:52.844Z,5.45
2019-04-06T20:12:21.272Z,4.33
2019-04-06T20:14:49.679Z,4.08
2019-04-06T20:17:18.605Z,3.10
2019-04-06T20:19:47.363Z,2.75
2019-04-06T20:22:15.864Z,4.58
2019-04-06T20:24:44.273Z,5.72
2019-04-06T20:27:12.694Z,4.42
2019-04-06T20:29:41.182Z,4.35
2019-04-06T20:32:09.644Z,3.70
2019-04-06T20:34:38.054Z,3.42
2019-04-06T20:37:06.451Z,2.52
2019-04-06T20:39:34.860Z,3.37
2019-04-06T20:42:02.936Z,2.70
2019-04-06T20:44:31.526Z,5.37
2019-04-06T20:47:00.600Z,2.90
2019-04-06T20:49:29.122Z,2.52
2019-04-06T20:51:58.799Z,2.92
2019-04-06T20:54:27.642Z,3.85
2019-04-06T20:56:57.985Z,3.12
2019-04-06T20:59:26.182Z,3.58
2019-04-06T21:01:54.582Z,5.30
2019-04-06T21:04:22.978Z,3.00
2019-04-06T21:06:51.533Z,2.15
2019-04-06T21:09:20.046Z,2.55
2019-04-06T21:11:49.035Z,2.72
2019-04-06T21:14:17.968Z,3.77
2019-04-06T21:16:46.886Z,2.85
2019-04-06T21:19:15.870Z,2.98
2019-04-06T21:21:44.455Z,2.90
2019-04-06T21:24:12.844Z,2.83
2019-04-06T21:26:41.699Z,3.33
2019-04-06T21:29:10.259Z,2.12
2019-04-06T21:31:38.673Z,2.75
2019-04-06T21:34:13.213Z,5.40
2019-04-06T21:36:37.205Z,2.08
2019-04-06T21:39:07.517Z,2.70
2019-04-06T21:41:35.928Z,6.12
2019-04-06T21:44:04.973Z,3.55
2019-04-06T21:46:33.675Z,4.12
2019-04-06T21:49:02.329Z,5.00
2019-04-06T21:51:31.002Z,3.20
2019-04-06T21:53:59.793Z,1.82
2019-04-06T21:56:28.485Z,1.95
2019-04-06T21:58:57.322Z,2.20
2019-04-06T22:01:26.435Z,2.58
2019-04-06T22:03:55.068Z,2.20
2019-04-06T22:06:25.009Z,2.20
2019-04-06T22:08:53.739Z,2.27
2019-04-06T22:11:22.237Z,5.87
2019-04-06T22:13:51.214Z,1.92
2019-04-06T22:16:19.717Z,2.60
2019-04-06T22:18:48.785Z,2.05
2019-04-06T22:21:17.892Z,2.02
2019-04-06T22:23:47.410Z,1.80
2019-04-06T22:26:15.623Z,2.02
2019-04-06T22:28:44.118Z,1.95
2019-04-06T22:31:13.215Z,1.98
2019-04-06T22:33:41.774Z,3.27
2019-04-06T22:36:10.181Z,1.85
2019-04-06T22:38:38.718Z,3.33
2019-04-06T22:41:07.172Z,2.20
2019-04-06T22:43:35.565Z,3.45
2019-04-06T22:46:04.331Z,2.08
2019-04-06T22:48:33.566Z,1.50
2019-04-06T22:51:02.134Z,3.85
2019-04-06T22:53:30.524Z,2.00
2019-04-06T22:55:59.136Z,2.12
2019-04-06T22:58:27.920Z,1.82
2019-04-06T23:00:58.100Z,1.95
2019-04-06T23:03:28.552Z,1.77
2019-04-06T23:06:17.995Z,1.47
2019-04-06T23:08:46.664Z,2.87
2019-04-06T23:11:15.075Z,1.47
2019-04-06T23:13:43.799Z,1.60
2019-04-06T23:16:12.634Z,3.40
2019-04-06T23:18:41.293Z,2.25
2019-04-06T23:21:09.805Z,2.35
2019-04-06T23:23:37.883Z,4.42
2019-04-06T23:26:06.276Z,2.70
2019-04-06T23:28:34.689Z,2.00
2019-04-06T23:31:03.155Z,1.70
2019-04-06T23:33:31.585Z,1.40
2019-04-06T23:35:59.985Z,1.57
2019-04-06T23:38:28.394Z,4.92
2019-04-06T23:40:56.788Z,3.08
2019-04-06T23:43:25.575Z,2.12
2019-04-06T23:45:53.972Z,1.67
2019-04-06T23:48:22.376Z,2.22
2019-04-06T23:50:50.772Z,1.73
2019-04-06T23:53:19.205Z,1.65
2019-04-06T23:55:47.772Z,1.35
2019-04-06T23:58:16.413Z,2.17
